Time,TemperatureF,DewpointF,PressureIn,WindDirection,WindDirectionDegrees,WindSpeedMPH,WindSpeedGustMPH,Humidity,HourlyPrecipIn,Conditions,Clouds,dailyrainin,SoftwareType,DateUTC
2013-03-17 00:02:00,38.0,33.0,27.81,WNW,300,9.0,17.0,82,0.00,,,0.00,,2013-03-17 07:02:00,
2013-03-17 00:11:00,38.0,33.0,27.81,WNW,300,9.0,17.0,82,0.00,,,0.00,,2013-03-17 07:11:00,
2013-03-17 00:22:00,37.0,33.0,27.81,WNW,295,9.0,16.0,85,0.00,,,0.00,,2013-03-17 07:22:00,
2013-03-17 00:32:00,37.0,33.0,27.82,West,267,9.0,13.0,85,0.00,,,0.00,,2013-03-17 07:32:00,
2013-03-17 00:42:00,37.0,33.0,27.82,West,267,9.0,13.0,85,0.00,,,0.00,,2013-03-17 07:42:00,
2013-03-17 00:52:00,36.0,33.0,27.83,WNW,298,8.0,13.0,87,0.01,,,0.01,,2013-03-17 07:52:00,
2013-03-17 01:02:00,36.0,33.0,27.83,West,276,6.0,11.0,89,0.03,,,0.03,,2013-03-17 08:02:00,
2013-03-17 01:12:00,35.0,32.0,27.83,WSW,251,0.0,8.0,90,0.06,,,0.06,,2013-03-17 08:12:00,
2013-03-17 01:22:00,35.0,32.0,27.83,WSW,251,0.0,8.0,90,0.06,,,0.06,,2013-03-17 08:22:00,
2013-03-17 01:32:00,35.0,33.0,27.84,WNW,303,2.0,5.0,91,0.07,,,0.07,,2013-03-17 08:32:00,
2013-03-17 01:42:00,35.0,33.0,27.84,WNW,303,2.0,5.0,91,0.07,,,0.07,,2013-03-17 08:42:00,
2013-03-17 01:52:00,36.0,34.0,27.84,NW,314,3.0,6.0,91,0.08,,,0.09,,2013-03-17 08:52:00,
2013-03-17 02:02:00,36.0,33.0,27.84,NW,311,6.0,13.0,89,0.08,,,0.11,,2013-03-17 09:02:00,
2013-03-17 02:11:00,36.0,33.0,27.84,NW,311,6.0,13.0,89,0.08,,,0.11,,2013-03-17 09:11:00,
2013-03-17 02:22:00,36.0,33.0,27.85,NW,324,2.0,12.0,89,0.06,,,0.12,,2013-03-17 09:22:00,
2013-03-17 02:32:00,35.0,33.0,27.85,South,174,0.0,3.0,91,0.05,,,0.12,,2013-03-17 09:32:00,
2013-03-17 02:42:00,35.0,33.0,27.85,South,174,0.0,3.0,91,0.05,,,0.12,,2013-03-17 09:42:00,
2013-03-17 02:52:00,35.0,33.0,27.85,NNE,18,0.0,3.0,92,0.03,,,0.12,,2013-03-17 09:52:00,
2013-03-17 03:02:00,35.0,33.0,27.85,SSW,204,0.0,2.0,91,0.01,,,0.12,,2013-03-17 10:02:00,
2013-03-17 03:12:00,35.0,33.0,27.85,SSW,204,0.0,2.0,91,0.01,,,0.12,,2013-03-17 10:12:00,
2013-03-17 03:23:00,34.0,32.0,27.85,NW,307,0.0,2.0,92,0.00,,,0.12,,2013-03-17 10:23:00,
2013-03-17 03:33:00,34.0,32.0,27.85,WNW,283,1.0,2.0,93,0.00,,,0.12,,2013-03-17 10:33:00,
2013-03-17 03:42:00,34.0,32.0,27.85,WNW,283,1.0,2.0,93,0.00,,,0.12,,2013-03-17 10:42:00,
2013-03-17 03:52:00,35.0,33.0,27.85,WNW,297,7.0,12.0,91,0.00,,,0.12,,2013-03-17 10:52:00,
2013-03-17 04:02:00,36.0,33.0,27.84,WNW,292,7.0,13.0,88,0.00,,,0.12,,2013-03-17 11:02:00,
2013-03-17 04:12:00,36.0,33.0,27.84,WNW,292,7.0,13.0,88,0.00,,,0.12,,2013-03-17 11:12:00,
2013-03-17 04:22:00,36.0,32.0,27.84,NW,309,4.0,10.0,85,0.00,,,0.12,,2013-03-17 11:22:00,
2013-03-17 04:32:00,35.0,32.0,27.84,NW,309,3.0,6.0,87,0.00,,,0.12,,2013-03-17 11:32:00,
2013-03-17 04:42:00,35.0,32.0,27.84,NW,309,3.0,6.0,87,0.00,,,0.12,,2013-03-17 11:42:00,
2013-03-17 04:52:00,39.0,30.0,27.83,West,270,11.0,20.0,69,0.00,,,0.12,,2013-03-17 11:52:00,
2013-03-17 05:01:00,40.0,29.0,27.84,WNW,287,12.0,24.0,64,0.00,,,0.12,,2013-03-17 12:01:00,
2013-03-17 05:12:00,40.0,29.0,27.84,WNW,287,12.0,24.0,64,0.00,,,0.12,,2013-03-17 12:12:00,
2013-03-17 05:21:00,40.0,27.0,27.85,West,277,15.0,24.0,60,0.00,,,0.12,,2013-03-17 12:21:00,
2013-03-17 05:32:00,41.0,28.0,27.86,West,271,11.0,22.0,60,0.00,,,0.12,,2013-03-17 12:32:00,
2013-03-17 05:42:00,41.0,28.0,27.86,West,271,11.0,22.0,60,0.00,,,0.12,,2013-03-17 12:42:00,
2013-03-17 05:52:00,40.0,27.0,27.86,NW,310,11.0,18.0,59,0.00,,,0.12,,2013-03-17 12:52:00,
2013-03-17 06:01:00,41.0,27.0,27.87,NW,312,15.0,21.0,57,0.00,,,0.12,,2013-03-17 13:01:00,
2013-03-17 06:12:00,41.0,27.0,27.87,NW,312,15.0,21.0,57,0.00,,,0.12,,2013-03-17 13:12:00,
2013-03-17 06:22:00,41.0,26.0,27.88,WNW,294,14.0,22.0,55,0.00,,,0.12,,2013-03-17 13:22:00,
2013-03-17 06:32:00,41.0,27.0,27.88,WNW,297,10.0,17.0,57,0.00,,,0.12,,2013-03-17 13:32:00,
2013-03-17 06:42:00,41.0,27.0,27.88,WNW,297,10.0,17.0,57,0.00,,,0.12,,2013-03-17 13:42:00,
2013-03-17 06:52:00,39.0,29.0,27.89,NW,326,8.0,18.0,66,0.00,,,0.12,,2013-03-17 13:52:00,
2013-03-17 07:02:00,40.0,26.0,27.89,WNW,288,15.0,22.0,57,0.00,,,0.12,,2013-03-17 14:02:00,
2013-03-17 07:11:00,40.0,26.0,27.89,WNW,288,15.0,22.0,57,0.00,,,0.12,,2013-03-17 14:11:00,
2013-03-17 07:22:00,40.0,26.0,27.89,WNW,288,15.0,22.0,57,0.00,,,0.12,,2013-03-17 14:22:00,
2013-03-17 07:32:00,40.0,26.0,27.89,WNW,288,15.0,22.0,57,0.00,,,0.12,,2013-03-17 14:32:00,
2013-03-17 07:42:00,40.0,26.0,27.89,WNW,288,15.0,22.0,57,0.00,,,0.12,,2013-03-17 14:42:00,
2013-03-17 07:52:00,39.0,27.0,27.93,WNW,288,5.0,14.0,63,0.00,,,0.12,,2013-03-17 14:52:00,
2013-03-17 08:02:00,39.0,28.0,27.94,WNW,284,5.0,9.0,65,0.00,,,0.12,,2013-03-17 15:02:00,
2013-03-17 08:12:00,39.0,28.0,27.94,WNW,284,5.0,9.0,65,0.00,,,0.12,,2013-03-17 15:12:00,
2013-03-17 08:22:00,39.0,28.0,27.94,NW,323,5.0,10.0,64,0.00,,,0.12,,2013-03-17 15:22:00,
2013-03-17 08:32:00,39.0,29.0,27.94,WNW,297,5.0,12.0,68,0.00,,,0.12,,2013-03-17 15:32:00,
2013-03-17 08:42:00,39.0,29.0,27.94,WNW,297,5.0,12.0,68,0.00,,,0.12,,2013-03-17 15:42:00,
2013-03-17 08:52:00,39.0,29.0,27.95,NW,304,7.0,12.0,68,0.00,,,0.12,,2013-03-17 15:52:00,
2013-03-17 09:03:00,39.0,29.0,27.95,West,277,6.0,10.0,68,0.00,,,0.12,,2013-03-17 16:03:00,
2013-03-17 09:12:00,39.0,29.0,27.95,West,277,6.0,10.0,68,0.00,,,0.12,,2013-03-17 16:12:00,
2013-03-17 09:22:00,40.0,30.0,27.96,NNW,338,5.0,11.0,66,0.00,,,0.12,,2013-03-17 16:22:00,
2013-03-17 09:33:00,41.0,31.0,27.97,WNW,285,3.0,9.0,68,0.00,,,0.12,,2013-03-17 16:33:00,
2013-03-17 09:42:00,41.0,31.0,27.97,WNW,285,3.0,9.0,68,0.00,,,0.12,,2013-03-17 16:42:00,
2013-03-17 09:52:00,42.0,30.0,27.97,WNW,298,7.0,15.0,62,0.00,,,0.12,,2013-03-17 16:52:00,
2013-03-17 10:02:00,43.0,28.0,27.98,NNW,327,13.0,20.0,55,0.00,,,0.12,,2013-03-17 17:02:00,
2013-03-17 10:12:00,43.0,28.0,27.98,NNW,327,13.0,20.0,55,0.00,,,0.12,,2013-03-17 17:12:00,
2013-03-17 10:22:00,43.0,28.0,27.98,NW,311,14.0,21.0,54,0.00,,,0.12,,2013-03-17 17:22:00,
2013-03-17 10:32:00,44.0,28.0,27.98,WNW,302,12.0,21.0,54,0.00,,,0.12,,2013-03-17 17:32:00,
2013-03-17 10:42:00,44.0,28.0,27.98,WNW,302,12.0,21.0,54,0.00,,,0.12,,2013-03-17 17:42:00,
2013-03-17 10:52:00,44.0,27.0,27.98,West,266,12.0,21.0,51,0.00,,,0.12,,2013-03-17 17:52:00,
2013-03-17 11:01:00,45.0,29.0,27.99,WNW,293,8.0,17.0,53,0.00,,,0.12,,2013-03-17 18:01:00,
2013-03-17 11:12:00,45.0,29.0,27.99,WNW,293,8.0,17.0,53,0.00,,,0.12,,2013-03-17 18:12:00,
2013-03-17 11:22:00,45.0,27.0,27.99,NW,304,14.0,21.0,50,0.00,,,0.12,,2013-03-17 18:22:00,
2013-03-17 11:32:00,45.0,27.0,28.00,West,277,10.0,23.0,48,0.00,,,0.12,,2013-03-17 18:32:00,
2013-03-17 11:42:00,45.0,27.0,28.00,West,277,10.0,23.0,48,0.00,,,0.12,,2013-03-17 18:42:00,
2013-03-17 11:52:00,46.0,26.0,28.00,NW,314,14.0,22.0,45,0.00,,,0.12,,2013-03-17 18:52:00,
2013-03-17 12:02:00,46.0,26.0,28.00,WNW,294,12.0,24.0,45,0.00,,,0.12,,2013-03-17 19:02:00,
2013-03-17 12:12:00,46.0,26.0,28.00,WNW,294,12.0,24.0,45,0.00,,,0.12,,2013-03-17 19:12:00,
2013-03-17 12:22:00,46.0,25.0,28.00,WNW,287,13.0,26.0,43,0.00,,,0.12,,2013-03-17 19:22:00,
2013-03-17 12:32:00,46.0,24.0,28.01,NW,323,14.0,23.0,42,0.00,,,0.12,,2013-03-17 19:32:00,
2013-03-17 12:41:00,46.0,24.0,28.01,NW,323,14.0,23.0,42,0.00,,,0.12,,2013-03-17 19:41:00,
2013-03-17 12:52:00,47.0,25.0,28.01,WSW,256,10.0,26.0,41,0.00,,,0.12,,2013-03-17 19:52:00,
2013-03-17 13:02:00,47.0,23.0,28.01,WNW,285,12.0,21.0,39,0.00,,,0.12,,2013-03-17 20:02:00,
2013-03-17 13:11:00,47.0,23.0,28.01,WNW,285,12.0,21.0,39,0.00,,,0.12,,2013-03-17 20:11:00,
2013-03-17 13:22:00,48.0,24.0,28.01,NW,309,10.0,17.0,39,0.00,,,0.12,,2013-03-17 20:22:00,
2013-03-17 13:32:00,48.0,24.0,28.01,WNW,288,12.0,24.0,39,0.00,,,0.12,,2013-03-17 20:32:00,
2013-03-17 13:42:00,48.0,24.0,28.01,WNW,288,12.0,24.0,39,0.00,,,0.12,,2013-03-17 20:42:00,
2013-03-17 13:52:00,48.0,24.0,28.00,NW,316,7.0,18.0,38,0.00,,,0.12,,2013-03-17 20:52:00,
2013-03-17 14:02:00,48.0,24.0,28.01,NW,307,9.0,21.0,38,0.00,,,0.12,,2013-03-17 21:02:00,
2013-03-17 14:11:00,48.0,24.0,28.01,NW,307,9.0,21.0,38,0.00,,,0.12,,2013-03-17 21:11:00,
2013-03-17 14:22:00,48.0,24.0,28.01,NNW,330,7.0,18.0,39,0.00,,,0.12,,2013-03-17 21:22:00,
2013-03-17 14:32:00,49.0,25.0,28.01,NNW,328,9.0,18.0,38,0.00,,,0.12,,2013-03-17 21:32:00,
2013-03-17 14:42:00,49.0,25.0,28.01,NNW,328,9.0,18.0,38,0.00,,,0.12,,2013-03-17 21:42:00,
2013-03-17 14:52:00,49.0,23.0,28.01,NW,307,10.0,17.0,36,0.00,,,0.12,,2013-03-17 21:52:00,
2013-03-17 15:02:00,48.0,23.0,28.01,NW,314,11.0,19.0,37,0.00,,,0.12,,2013-03-17 22:02:00,
2013-03-17 15:12:00,48.0,22.0,28.01,West,280,12.0,19.0,35,0.00,,,0.12,,2013-03-17 22:12:00,
2013-03-17 15:23:00,48.0,22.0,28.01,West,280,12.0,19.0,35,0.00,,,0.12,,2013-03-17 22:23:00,
2013-03-17 15:33:00,48.0,21.0,28.01,NNW,338,12.0,21.0,34,0.00,,,0.12,,2013-03-17 22:33:00,
2013-03-17 15:42:00,48.0,21.0,28.01,NNW,338,12.0,21.0,34,0.00,,,0.12,,2013-03-17 22:42:00,
2013-03-17 15:52:00,49.0,23.0,28.01,NW,307,7.0,15.0,36,0.00,,,0.12,,2013-03-17 22:52:00,
2013-03-17 16:02:00,49.0,23.0,28.01,WNW,302,8.0,13.0,36,0.00,,,0.12,,2013-03-17 23:02:00,
2013-03-17 16:12:00,49.0,23.0,28.01,WNW,302,8.0,13.0,36,0.00,,,0.12,,2013-03-17 23:12:00,
2013-03-17 16:22:00,49.0,23.0,28.01,WNW,302,8.0,13.0,36,0.00,,,0.12,,2013-03-17 23:22:00,
2013-03-17 16:32:00,47.0,21.0,28.02,WNW,293,7.0,19.0,36,0.00,,,0.12,,2013-03-17 23:32:00,
2013-03-17 16:42:00,47.0,21.0,28.02,WNW,293,7.0,19.0,36,0.00,,,0.12,,2013-03-17 23:42:00,
2013-03-17 16:52:00,47.0,21.0,28.02,WNW,291,6.0,16.0,36,0.00,,,0.12,,2013-03-17 23:52:00,
2013-03-17 17:02:00,48.0,22.0,28.02,West,281,5.0,14.0,35,0.00,,,0.12,,2013-03-18 00:02:00,
2013-03-17 17:11:00,48.0,22.0,28.02,West,281,5.0,14.0,35,0.00,,,0.12,,2013-03-18 00:11:00,
2013-03-17 17:22:00,48.0,21.0,28.02,West,278,9.0,14.0,34,0.00,,,0.12,,2013-03-18 00:22:00,
2013-03-17 17:32:00,48.0,21.0,28.02,SW,236,10.0,19.0,34,0.00,,,0.12,,2013-03-18 00:32:00,
2013-03-17 17:42:00,48.0,21.0,28.02,SW,236,10.0,19.0,34,0.00,,,0.12,,2013-03-18 00:42:00,
2013-03-17 17:52:00,48.0,21.0,28.02,WNW,302,9.0,20.0,34,0.00,,,0.12,,2013-03-18 00:52:00,
2013-03-17 18:01:00,48.0,22.0,28.02,NW,310,9.0,19.0,36,0.00,,,0.12,,2013-03-18 01:01:00,
2013-03-17 18:12:00,48.0,22.0,28.02,NW,310,9.0,19.0,36,0.00,,,0.12,,2013-03-18 01:12:00,
2013-03-17 18:22:00,47.0,23.0,28.02,West,269,9.0,16.0,38,0.00,,,0.12,,2013-03-18 01:22:00,
2013-03-17 18:32:00,46.0,22.0,28.02,West,281,8.0,14.0,39,0.00,,,0.12,,2013-03-18 01:32:00,
2013-03-17 18:42:00,46.0,22.0,28.02,West,281,8.0,14.0,39,0.00,,,0.12,,2013-03-18 01:42:00,
2013-03-17 18:52:00,45.0,22.0,28.02,WNW,293,4.0,11.0,40,0.00,,,0.12,,2013-03-18 01:52:00,
2013-03-17 19:02:00,45.0,22.0,28.02,WNW,298,4.0,9.0,40,0.00,,,0.12,,2013-03-18 02:02:00,
2013-03-17 19:12:00,45.0,22.0,28.02,WNW,298,4.0,9.0,40,0.00,,,0.12,,2013-03-18 02:12:00,
2013-03-17 19:22:00,44.0,23.0,28.02,NW,308,3.0,6.0,43,0.00,,,0.12,,2013-03-18 02:22:00,
2013-03-17 19:32:00,44.0,23.0,28.02,WNW,295,5.0,10.0,43,0.00,,,0.12,,2013-03-18 02:32:00,
2013-03-17 19:42:00,44.0,23.0,28.02,WNW,295,5.0,10.0,43,0.00,,,0.12,,2013-03-18 02:42:00,
2013-03-17 19:52:00,44.0,24.0,28.02,WNW,291,5.0,12.0,45,0.00,,,0.12,,2013-03-18 02:52:00,
2013-03-17 20:02:00,43.0,24.0,28.02,WNW,283,5.0,9.0,46,0.00,,,0.12,,2013-03-18 03:02:00,
2013-03-17 20:11:00,43.0,24.0,28.02,WNW,283,5.0,9.0,46,0.00,,,0.12,,2013-03-18 03:11:00,
2013-03-17 20:21:00,42.0,24.0,28.02,WNW,295,6.0,11.0,48,0.00,,,0.12,,2013-03-18 03:21:00,
2013-03-17 20:32:00,42.0,25.0,28.02,WNW,291,5.0,9.0,51,0.00,,,0.12,,2013-03-18 03:32:00,
2013-03-17 20:42:00,42.0,25.0,28.02,WNW,291,5.0,9.0,51,0.00,,,0.12,,2013-03-18 03:42:00,
2013-03-17 20:52:00,41.0,25.0,28.02,West,277,4.0,7.0,53,0.00,,,0.12,,2013-03-18 03:52:00,
2013-03-17 21:02:00,40.0,26.0,28.02,WNW,289,3.0,8.0,56,0.00,,,0.12,,2013-03-18 04:02:00,
2013-03-17 21:12:00,40.0,26.0,28.02,WNW,289,3.0,8.0,56,0.00,,,0.12,,2013-03-18 04:12:00,
2013-03-17 21:22:00,41.0,27.0,28.02,WNW,291,4.0,8.0,56,0.00,,,0.12,,2013-03-18 04:22:00,
2013-03-17 21:33:00,41.0,27.0,28.03,WNW,288,3.0,9.0,56,0.00,,,0.12,,2013-03-18 04:33:00,
2013-03-17 21:42:00,41.0,27.0,28.03,WNW,288,3.0,9.0,56,0.00,,,0.12,,2013-03-18 04:42:00,
2013-03-17 21:52:00,40.0,26.0,28.03,WNW,303,2.0,6.0,57,0.00,,,0.12,,2013-03-18 04:52:00,
2013-03-17 22:02:00,41.0,27.0,28.03,NW,304,3.0,6.0,57,0.00,,,0.12,,2013-03-18 05:02:00,
2013-03-17 22:12:00,41.0,27.0,28.03,NW,304,3.0,6.0,57,0.00,,,0.12,,2013-03-18 05:12:00,
2013-03-17 22:22:00,39.0,26.0,28.03,NW,309,2.0,6.0,60,0.00,,,0.12,,2013-03-18 05:22:00,
2013-03-17 22:32:00,40.0,27.0,28.04,NNW,327,4.0,7.0,60,0.00,,,0.12,,2013-03-18 05:32:00,
2013-03-17 22:42:00,40.0,27.0,28.04,NNW,327,4.0,7.0,60,0.00,,,0.12,,2013-03-18 05:42:00,
2013-03-17 22:52:00,39.0,27.0,28.04,NW,321,1.0,4.0,61,0.00,,,0.12,,2013-03-18 05:52:00,
2013-03-17 23:02:00,39.0,27.0,28.04,West,277,0.0,4.0,61,0.00,,,0.12,,2013-03-18 06:02:00,
2013-03-17 23:12:00,39.0,27.0,28.04,West,277,0.0,4.0,61,0.00,,,0.12,,2013-03-18 06:12:00,
2013-03-17 23:22:00,37.0,26.0,28.04,WSW,240,0.0,1.0,64,0.00,,,0.12,,2013-03-18 06:22:00,
2013-03-17 23:32:00,38.0,28.0,28.04,WNW,291,6.0,9.0,66,0.00,,,0.12,,2013-03-18 06:32:00,
2013-03-17 23:42:00,38.0,28.0,28.04,WNW,291,6.0,9.0,66,0.00,,,0.12,,2013-03-18 06:42:00,
2013-03-17 23:52:00,39.0,27.0,28.04,West,281,4.0,7.0,63,0.00,,,0.12,,2013-03-18 06:52:00,